Stations météo

réclame
Mon MeteoGroup
Braunschweig-Waggum, Allemagne (10346): Température de l'air & dewpoint: 09.09.2019 12:00:00 - 15.09.2019 12:00:00 (CEST)Braunschweig-Waggum, Allemagne (10346): Vitesse du vent: 09.09.2019 12:00:00 - 15.09.2019 12:00:00 (CEST)Braunschweig-Waggum, Allemagne (10346): Direction du vent: 09.09.2019 12:00:00 - 15.09.2019 12:00:00 (CEST)Braunschweig-Waggum, Allemagne (10346): visibility: 09.09.2019 12:00:00 - 15.09.2019 12:00:00 (CEST)
Date & Time tt [°C] td [°C] ff [km/h] ff [knt] dd vv [km]
15.09.2019 12:00:00 20,0 7,0 26 14 W 10
15.09.2019 11:00:00 19,0 6,0 22 12 W 10
15.09.2019 10:00:00 17,0 8,0 18 10 WSW 10
15.09.2019 09:00:00 14,0 8,0 15 8 WSW 10
15.09.2019 08:00:00 - - - - - -
15.09.2019 07:00:00 - - - - - -
15.09.2019 06:00:00 - - - - - -
15.09.2019 05:00:00 - - - - - -
15.09.2019 04:00:00 - - - - - -
15.09.2019 03:00:00 - - - - - -
15.09.2019 02:00:00 - - - - - -
15.09.2019 01:00:00 - - - - - -
15.09.2019 00:00:00 - - - - - -
14.09.2019 23:00:00 - - - - - -
14.09.2019 22:00:00 - - - - - -
14.09.2019 21:00:00 - - - - - -
14.09.2019 20:00:00 14,0 5,0 4 2 N 10
14.09.2019 19:00:00 18,0 3,0 5 3 NW 10
14.09.2019 18:00:00 - - - - - -
14.09.2019 17:00:00 19,0 4,0 8 4 W 10
14.09.2019 16:00:00 19,0 5,0 5 3 - 10
14.09.2019 15:00:00 19,0 5,0 8 4 NW 10
14.09.2019 14:00:00 18,0 6,0 5 3 - 10
14.09.2019 13:00:00 17,0 5,0 4 2 - 10
14.09.2019 12:00:00 16,0 7,0 8 4 WNW 10
14.09.2019 11:00:00 15,0 9,0 4 2 - 10
14.09.2019 10:00:00 13,0 9,0 2 1 - 10
14.09.2019 09:00:00 10,0 8,0 0 0 N 10
14.09.2019 08:00:00 - - - - - -
14.09.2019 07:00:00 - - - - - -
14.09.2019 06:00:00 - - - - - -
14.09.2019 05:00:00 - - - - - -
14.09.2019 04:00:00 - - - - - -
14.09.2019 03:00:00 - - - - - -
14.09.2019 02:00:00 10,0 7,0 5 3 NW 10
14.09.2019 01:00:00 10,0 7,0 4 2 - 10
14.09.2019 00:00:00 - - - - - -
13.09.2019 23:00:00 - - - - - -
13.09.2019 22:00:00 13,0 7,0 0 0 N 10
13.09.2019 21:00:00 15,0 7,0 4 2 - 10
13.09.2019 20:00:00 17,0 7,0 11 6 NNW 10
13.09.2019 19:00:00 18,0 8,0 15 8 NNW 10
13.09.2019 18:00:00 20,0 9,0 18 10 NNW 10
13.09.2019 17:00:00 21,0 9,0 18 10 NW 10
13.09.2019 16:00:00 21,0 10,0 21 11 NW 10
13.09.2019 15:00:00 21,0 11,0 18 10 WNW 10
13.09.2019 14:00:00 20,0 13,0 18 10 NNW 10
13.09.2019 13:00:00 19,0 14,0 26 14 NW 10
13.09.2019 12:00:00 20,0 16,0 22 12 W 10
13.09.2019 11:00:00 19,0 15,0 21 11 W 10
13.09.2019 10:00:00 19,0 15,0 18 10 W 10
13.09.2019 09:00:00 18,0 14,0 18 10 W 10
13.09.2019 08:00:00 18,0 14,0 21 11 W 10
13.09.2019 07:00:00 18,0 14,0 13 7 WSW 10
13.09.2019 06:00:00 - - - - - -
13.09.2019 05:00:00 - - - - - -
13.09.2019 04:00:00 - - - - - -
13.09.2019 03:00:00 - - - - - -
13.09.2019 02:00:00 - - - - - -
13.09.2019 01:00:00 - - - - - -
13.09.2019 00:00:00 - - - - - -
12.09.2019 23:00:00 - - - - - -
12.09.2019 22:00:00 17,0 13,0 9 5 W 10
12.09.2019 21:00:00 18,0 13,0 9 5 W 10
12.09.2019 20:00:00 20,0 13,0 9 5 WSW 10
12.09.2019 19:00:00 22,0 13,0 15 8 W 10
12.09.2019 18:00:00 23,0 13,0 18 10 W 10
12.09.2019 17:00:00 22,0 13,0 18 10 W 10
12.09.2019 16:00:00 22,0 13,0 21 11 W 10
12.09.2019 15:00:00 22,0 14,0 24 13 W 10
12.09.2019 14:00:00 20,0 15,0 16 9 WSW 10
12.09.2019 13:00:00 19,0 15,0 21 11 W 10
12.09.2019 12:00:00 18,0 15,0 16 9 WSW 10
12.09.2019 11:00:00 17,0 14,0 15 8 SW 10
12.09.2019 10:00:00 16,0 14,0 18 10 WSW 10
12.09.2019 09:00:00 16,0 14,0 15 8 WSW 10
12.09.2019 08:00:00 15,0 13,0 13 7 WSW 10
12.09.2019 07:00:00 15,0 13,0 13 7 SW 10
12.09.2019 06:00:00 - - - - - -
12.09.2019 05:00:00 - - - - - -
12.09.2019 04:00:00 - - - - - -
12.09.2019 03:00:00 - - - - - -
12.09.2019 02:00:00 - - - - - -
12.09.2019 01:00:00 - - - - - -
12.09.2019 00:00:00 - - - - - -
11.09.2019 23:00:00 - - - - - -
11.09.2019 22:00:00 - - - - - -
11.09.2019 21:00:00 16,0 12,0 16 9 W 10
11.09.2019 20:00:00 19,0 8,0 21 11 W 10
11.09.2019 19:00:00 20,0 7,0 13 7 WSW 10
11.09.2019 18:00:00 21,0 7,0 15 8 W 10
11.09.2019 17:00:00 22,0 7,0 18 10 WSW 10
11.09.2019 16:00:00 21,0 7,0 22 12 WSW 10
11.09.2019 15:00:00 21,0 6,0 18 10 SW 10
11.09.2019 14:00:00 21,0 6,0 24 13 SW 10
11.09.2019 13:00:00 20,0 6,0 22 12 WSW 10
11.09.2019 12:00:00 20,0 7,0 15 8 WSW 10
11.09.2019 11:00:00 17,0 8,0 13 7 SSW 10
11.09.2019 10:00:00 15,0 7,0 11 6 S 10
11.09.2019 09:00:00 12,0 7,0 9 5 SSE 10
11.09.2019 08:00:00 9,0 6,0 5 3 - 10
11.09.2019 07:00:00 8,0 5,0 4 2 - 10
11.09.2019 06:00:00 - - - - - -
11.09.2019 05:00:00 - - - - - -
11.09.2019 04:00:00 - - - - - -
11.09.2019 03:00:00 - - - - - -
11.09.2019 02:00:00 - - - - - -
11.09.2019 01:00:00 - - - - - -
11.09.2019 00:00:00 - - - - - -
10.09.2019 23:00:00 - - - - - -
10.09.2019 22:00:00 13,0 7,0 0 0 N 10
10.09.2019 21:00:00 13,0 6,0 0 0 N 10
10.09.2019 20:00:00 15,0 6,0 9 5 W 10
10.09.2019 19:00:00 18,0 6,0 11 6 W 10
10.09.2019 18:00:00 18,0 6,0 16 9 W 10
10.09.2019 17:00:00 19,0 5,0 18 10 W 10
10.09.2019 16:00:00 18,0 6,0 22 12 WNW 10
10.09.2019 15:00:00 17,0 6,0 18 10 W 10
10.09.2019 14:00:00 18,0 7,0 24 13 WNW 10
10.09.2019 13:00:00 17,0 8,0 26 14 W 10
10.09.2019 12:00:00 16,0 8,0 22 12 W 10
10.09.2019 11:00:00 16,0 10,0 21 11 W 10
10.09.2019 10:00:00 14,0 10,0 18 10 W 10
10.09.2019 09:00:00 12,0 9,0 13 7 W 10
10.09.2019 08:00:00 10,0 9,0 9 5 W 10
10.09.2019 07:00:00 9,0 8,0 9 5 W 10
10.09.2019 06:00:00 - - - - - -
10.09.2019 05:00:00 - - - - - -
10.09.2019 04:00:00 - - - - - -
10.09.2019 03:00:00 - - - - - -
10.09.2019 02:00:00 - - - - - -
10.09.2019 01:00:00 - - - - - -
10.09.2019 00:00:00 - - - - - -
09.09.2019 23:00:00 - - - - - -
09.09.2019 22:00:00 13,0 11,0 8 4 W 10
09.09.2019 21:00:00 13,0 12,0 8 4 WNW 10
09.09.2019 20:00:00 13,0 12,0 8 4 W 10
09.09.2019 19:00:00 13,0 12,0 9 5 NW 10
09.09.2019 18:00:00 13,0 12,0 13 7 WNW 10
09.09.2019 17:00:00 13,0 11,0 11 6 WNW 7
09.09.2019 16:00:00 15,0 12,0 5 3 - 10
09.09.2019 15:00:00 15,0 11,0 15 8 WNW 10
09.09.2019 14:00:00 15,0 12,0 15 8 WNW 10
09.09.2019 13:00:00 15,0 11,0 13 7 W 10
09.09.2019 12:00:00 15,0 11,0 13 7 WNW 10

tt = Température de l'air
td = dewpoint
ff = Vitesse du vent
dd = Direction du vent
vv = visibility

stations d'obs. à proximité